• Bienvenue sur Pilotes Québec!
  • Bienvenue sur le site de Pilotes Québec, la nouvelle communauté des pilotes et aviateurs du Québec.
  • L'Antonov An-2 C-FAKA, piloté par Neil Bilodeau a fait sa première apparition sur skis dans un RV hivernal, au rendez-vous hivernal annuel Challenger à Montebello.  Encore merci Jean-Pierre pour l'image spectaculaire!
  • Calendrier des activités
  • sujets récents au forum...
  • Les nouvelles en bref...

Connexion


J'ai oublié mon mot de passe
Renvoyer l'e-mail de confirmation
 

Conditions actuelles

Click for Quebec, Quebec Forecast

METAR - Québec


2015/02/27 03:00
CYQB 270300Z 25010KT 15SM SCT150 M17/M25 A3014 RMK AC3 SLP213

TAF - Québec


2015/02/26 18:42
TAF CYQB 261738Z 2618/2718 24012KT P6SM FEW025 BKN240
BECMG 2621/2623 26005KT
FM271600 25013G23KT P6SM FEW030
RMK NXT FCST BY 270000Z

Accueil Forum Aéroports
Région de Montréal
Région de Québec
Calendrier Ressources
Fréquences FIC de Québec
Associations et aéroclubs
Regroupements à l'échelle inter-régionnal
Nous joindre Publicité


Copyright © 2015, Pilotes Québec, tous droits réservés.
Protégé par les lois du copyright des États-Unis et du Canada et par des traités internationaux.